Impacts TAF Board INFO
FOR SITUATIONAL AWARENESS. NOT TO BE USED FOR FLIGHT PLANNING PURPOSES.
IDs:

KMSP - Minneapolis-St Paul, MN, US

Issued at 1454 UTC 16 Jan 2018
Updated at 1516 UTC 16 Jan 2018
Potential Impact None Slight Moderate High
Time1453Z 16/16Z 16/17Z 16/18Z 16/19Z 16/20Z 16/21Z 16/22Z 16/23Z 17/00Z 17/01Z 17/02Z 17/03Z 17/04Z>>
Type OBS PRVL PRVL PRVL PRVL PRVL PRVL PRVL PRVL PRVL PRVL PRVL PRVL PRVL
VIS 10 >6 >6 >6 >6 >6 >6 >6 >6 >6 >6 >6 >6 >6
CIG 13 15 15 -- -- -- -- 50 50 50 50 50 50 --
Cover BKN BKN BKN SCT SCT SCT SCT BKN BKN BKN BKN BKN BKN SCT
FltCat MVFR MVFR MVFR VFR VFR VFR VFR VFR VFR VFR VFR VFR VFR VFR
WX -- -- -- -- -- -- -- -- -- -- -- -- -- --
WDir 310 320 320 300 300 300 300 250 250 250 250 250 250 220
WSpd 8 10 10 7 7 7 7 4 4 4 4 4 4 5
WGst -- -- -- -- -- -- -- -- -- -- -- -- -- --

Raw TAF
KMSP 161454Z 1615/1718 32010KT P6SM BKN015
  FM161800 30007KT P6SM SCT018
  FM162200 25004KT P6SM SCT020 BKN050
  FM170400 22005KT P6SM SCT250
  FM170900 20005KT P6SM SKC


Raw METAR
KMSP 161453Z 31008KT 10SM BKN013 M18/M20 A3069 RMK AO2 SNE30 SLP416 P0000 60000 T11831200 51010
KMSP 161353Z 32010KT 9SM -SN OVC011 M18/M19 A3068 RMK AO2 SNB14 SLP413 P0000 T11781194
KMSP 161253Z 31009KT 8SM OVC010 M17/M19 A3068 RMK AO2 SLP413 T11721189

METAR Board
Radar Display
Forecast Discussion

FOR SITUATIONAL AWARENESS. NOT TO BE USED FOR FLIGHT PLANNING PURPOSES.